Time;durP1;ratioP1;P1;durP2;ratioP2;P2;SDS_P1;SDS_P2;PMS_P1;PMS_P2;Temp;Humidity;BMP_temperature;BMP_pressure;BME280_temperature;BME280_humidity;BME280_pressure;Samples;Min_cycle;Max_cycle;Signal;HPM_P1;HPM_P2
2022/03/18 00:02:04;;;;;;;37.90;27.60;;;7.40;83.30;;;;;;5115588;28;20027;-79
2022/03/18 00:04:29;;;;;;;38.00;28.48;;;7.40;83.30;;;;;;5115026;28;20039;-80
2022/03/18 00:06:55;;;;;;;38.55;27.90;;;7.30;83.50;;;;;;5115399;28;20031;-78
2022/03/18 00:09:21;;;;;;;34.70;27.30;;;7.30;84.50;;;;;;5115495;28;20024;-79
2022/03/18 00:11:47;;;;;;;35.42;27.75;;;7.40;83.80;;;;;;5114148;28;20031;-79
2022/03/18 00:14:14;;;;;;;37.22;27.33;;;7.30;84.10;;;;;;5115855;28;20349;-79
2022/03/18 00:16:40;;;;;;;35.28;27.38;;;7.30;84.50;;;;;;5115492;28;20365;-79
2022/03/18 00:19:06;;;;;;;35.33;27.58;;;7.30;84.70;;;;;;5115188;27;20077;-79
2022/03/18 00:21:34;;;;;;;36.65;26.77;;;7.30;85.00;;;;;;5115522;28;20023;-80
2022/03/18 00:24:00;;;;;;;42.72;29.23;;;7.20;85.20;;;;;;5113695;28;20028;-79
2022/03/18 00:26:26;;;;;;;39.60;28.42;;;7.10;85.40;;;;;;5115367;28;20073;-79
2022/03/18 00:28:52;;;;;;;39.78;28.27;;;7.10;86.10;;;;;;5114476;28;20032;-80
2022/03/18 00:31:18;;;;;;;37.08;27.77;;;7.10;86.70;;;;;;5115149;28;20035;-79
2022/03/18 00:36:27;;;;;;;38.78;28.58;;;7.10;86.30;;;;;;5115208;28;20502;-78
2022/03/18 00:38:53;;;;;;;35.97;26.92;;;7.10;86.60;;;;;;5114841;28;20036;-78
2022/03/18 00:41:19;;;;;;;38.85;29.65;;;7.00;87.60;;;;;;5115054;28;20453;-79
2022/03/18 00:43:44;;;;;;;39.35;28.33;;;7.00;87.30;;;;;;5114345;28;20035;-79
2022/03/18 00:46:10;;;;;;;37.28;28.40;;;7.00;87.50;;;;;;5114972;28;20027;-80
2022/03/18 00:54:04;;;;;;;39.83;28.20;;;6.90;88.40;;;;;;5114028;28;20027;-78
2022/03/18 00:56:30;;;;;;;38.78;28.17;;;6.90;88.90;;;;;;5114853;28;20051;-77
2022/03/18 00:58:55;;;;;;;41.45;28.63;;;6.90;89.20;;;;;;5113968;28;20035;-78
2022/03/18 01:01:21;;;;;;;42.58;29.02;;;6.80;89.30;;;;;;5114341;28;20096;-78
2022/03/18 01:03:46;;;;;;;34.67;27.65;;;6.90;89.40;;;;;;5113998;28;20039;-78
2022/03/18 01:06:12;;;;;;;38.70;28.50;;;6.80;89.40;;;;;;5114207;28;20077;-78
2022/03/18 01:08:38;;;;;;;37.20;28.13;;;6.80;89.50;;;;;;5112764;28;20035;-79
2022/03/18 01:11:04;;;;;;;39.63;29.05;;;6.80;89.80;;;;;;5113630;28;20102;-78
2022/03/18 01:13:29;;;;;;;40.20;28.00;;;6.80;89.70;;;;;;5112717;28;20389;-77
2022/03/18 01:15:55;;;;;;;42.90;29.52;;;6.80;90.10;;;;;;5113465;28;20049;-78
2022/03/18 01:18:21;;;;;;;40.33;28.98;;;6.80;90.20;;;;;;5113607;28;20054;-79
2022/03/18 01:20:46;;;;;;;40.80;29.20;;;6.80;90.30;;;;;;5113461;28;20019;-79
2022/03/18 01:23:13;;;;;;;40.55;29.67;;;6.80;90.30;;;;;;5112592;28;20024;-77
2022/03/18 01:25:40;;;;;;;42.30;29.83;;;6.70;90.20;;;;;;5113803;28;20027;-78
2022/03/18 01:28:06;;;;;;;41.28;30.88;;;6.80;90.40;;;;;;5112897;28;20189;-78
2022/03/18 01:30:32;;;;;;;45.63;29.83;;;6.80;90.40;;;;;;5113710;28;20391;-78
2022/03/18 01:33:02;;;;;;;39.33;29.52;;;6.80;90.60;;;;;;5113295;27;20492;-78
2022/03/18 01:35:28;;;;;;;43.92;29.95;;;6.80;90.90;;;;;;5113761;28;20092;-78
2022/03/18 01:37:54;;;;;;;40.50;29.90;;;6.80;90.80;;;;;;5113226;28;20020;-78
2022/03/18 01:40:19;;;;;;;42.30;30.90;;;6.80;91.00;;;;;;5113530;28;20036;-78
2022/03/18 01:42:45;;;;;;;43.38;31.30;;;6.80;91.00;;;;;;5113582;28;20034;-77
2022/03/18 01:45:11;;;;;;;40.60;29.63;;;6.70;91.10;;;;;;5112720;28;20069;-78
2022/03/18 01:47:42;;;;;;;40.60;30.30;;;6.70;91.40;;;;;;5113020;28;20100;-78
2022/03/18 01:50:17;;;;;;;;;;;6.80;91.60;;;;;;5112032;28;20032;-78
2022/03/18 01:52:44;;;;;;;44.22;31.08;;;6.70;91.50;;;;;;5113869;28;19930;-79
2022/03/18 01:55:29;;;;;;;41.65;29.77;;;6.70;91.40;;;;;;5113061;28;20500;-79
2022/03/18 01:57:54;;;;;;;42.13;30.80;;;6.70;91.50;;;;;;5113180;28;20055;-79
2022/03/18 02:00:21;;;;;;;45.58;31.60;;;6.70;91.60;;;;;;5113384;28;20069;-78
2022/03/18 02:02:48;;;;;;;43.80;31.63;;;6.70;91.80;;;;;;5113314;28;20031;-78
2022/03/18 02:05:14;;;;;;;44.05;32.45;;;6.70;91.70;;;;;;5113467;28;20024;-79
2022/03/18 02:07:40;;;;;;;44.55;32.42;;;6.60;91.80;;;;;;5112201;28;20024;-79
2022/03/18 02:10:07;;;;;;;46.15;31.70;;;6.60;92.00;;;;;;5112959;28;20030;-82
2022/03/18 02:12:33;;;;;;;44.97;31.73;;;6.60;92.00;;;;;;5113549;28;20023;-80
2022/03/18 02:14:59;;;;;;;40.90;31.92;;;6.50;92.00;;;;;;5112961;28;20516;-79
2022/03/18 02:17:25;;;;;;;47.53;32.90;;;6.50;92.20;;;;;;5113235;28;20027;-79
2022/03/18 02:19:50;;;;;;;45.65;33.03;;;6.50;92.00;;;;;;5112452;28;20084;-80
2022/03/18 02:22:21;;;;;;;40.55;32.80;;;6.50;92.30;;;;;;5113234;28;20028;-78
2022/03/18 02:24:48;;;;;;;42.70;31.60;;;6.50;91.90;;;;;;5113236;28;20126;-79
2022/03/18 02:27:14;;;;;;;45.00;32.00;;;6.50;92.20;;;;;;5112261;28;20468;-78
2022/03/18 02:29:41;;;;;;;49.03;34.50;;;6.40;92.10;;;;;;5112536;28;20043;-78
2022/03/18 02:32:07;;;;;;;53.00;33.33;;;6.40;92.40;;;;;;5111370;28;20375;-79
2022/03/18 02:34:34;;;;;;;43.78;33.35;;;6.30;92.50;;;;;;5111336;28;20019;-78
2022/03/18 02:37:00;;;;;;;43.72;32.20;;;6.40;92.60;;;;;;5112416;28;20457;-79
2022/03/18 02:39:26;;;;;;;44.88;33.30;;;6.30;92.60;;;;;;5111577;28;20077;-79
2022/03/18 02:41:52;;;;;;;43.45;33.15;;;6.30;92.60;;;;;;5112428;28;20431;-81
2022/03/18 02:44:18;;;;;;;45.15;34.25;;;6.20;92.80;;;;;;5112836;28;20073;-79
2022/03/18 02:46:44;;;;;;;43.78;32.67;;;6.20;93.50;;;;;;5112838;28;20407;-78
2022/03/18 02:49:09;;;;;;;41.53;32.97;;;6.20;93.80;;;;;;5110841;28;20039;-79
2022/03/18 02:51:37;;;;;;;44.83;33.60;;;6.20;93.40;;;;;;5111178;28;20112;-79
2022/03/18 02:54:04;;;;;;;45.35;34.67;;;6.20;93.80;;;;;;5111965;28;20023;-80
2022/03/18 02:56:31;;;;;;;47.17;33.13;;;6.10;93.50;;;;;;5112555;28;20055;-79
2022/03/18 03:01:41;;;;;;;46.20;34.35;;;6.10;94.00;;;;;;5112695;28;20046;-79
2022/03/18 03:04:07;;;;;;;52.47;35.47;;;6.20;93.90;;;;;;5112189;28;20483;-79
2022/03/18 03:09:17;;;;;;;45.58;34.92;;;6.10;93.70;;;;;;5111794;28;20458;-80
2022/03/18 03:11:44;;;;;;;44.58;34.08;;;6.20;93.70;;;;;;5112615;28;20027;-79
2022/03/18 03:14:10;;;;;;;47.47;33.42;;;6.10;93.70;;;;;;5111993;28;20020;-81
2022/03/18 03:16:36;;;;;;;50.55;34.50;;;6.10;93.70;;;;;;5111167;28;20034;-78
2022/03/18 03:19:02;;;;;;;47.47;33.80;;;6.10;93.30;;;;;;5110554;28;20036;-80
2022/03/18 03:21:28;;;;;;;48.00;33.85;;;6.10;93.90;;;;;;5112350;28;20077;-80
2022/03/18 03:23:55;;;;;;;47.70;33.47;;;6.10;94.00;;;;;;5110957;28;20491;-80
2022/03/18 03:26:21;;;;;;;46.15;33.60;;;6.10;94.30;;;;;;5112400;28;20028;-77
2022/03/18 03:28:47;;;;;;;48.47;35.33;;;6.00;94.20;;;;;;5111961;28;20398;-80
2022/03/18 03:31:13;;;;;;;45.88;34.63;;;6.00;94.40;;;;;;5110526;28;20028;-78
2022/03/18 03:33:38;;;;;;;47.67;33.67;;;6.00;94.30;;;;;;5112313;28;20022;-79
2022/03/18 03:36:04;;;;;;;53.30;34.83;;;6.00;94.60;;;;;;5110314;28;20388;-79
2022/03/18 03:38:30;;;;;;;45.97;33.78;;;6.00;94.50;;;;;;5112085;28;20023;-78
2022/03/18 03:41:14;;;;;;;45.58;35.05;;;6.00;94.50;;;;;;5110393;28;20073;-82
2022/03/18 03:43:41;;;;;;;48.78;34.40;;;6.00;94.50;;;;;;5112126;28;20031;-78
2022/03/18 03:46:07;;;;;;;48.17;33.88;;;6.00;94.80;;;;;;5111928;28;20026;-78
2022/03/18 03:48:33;;;;;;;46.10;34.20;;;6.00;94.80;;;;;;5112191;28;20024;-79
2022/03/18 03:50:58;;;;;;;47.88;34.35;;;6.00;95.00;;;;;;5113954;28;20110;-80
2022/03/18 03:53:24;;;;;;;46.67;35.33;;;6.00;95.20;;;;;;5114369;28;20051;-79
2022/03/18 03:55:50;;;;;;;50.67;35.33;;;6.10;95.40;;;;;;5114140;28;20096;-79
2022/03/18 03:58:16;;;;;;;52.72;36.25;;;6.10;95.40;;;;;;5114903;28;20071;-80
2022/03/18 04:00:42;;;;;;;59.78;38.30;;;6.10;95.50;;;;;;5115385;28;20475;-79
2022/03/18 04:03:08;;;;;;;49.78;36.20;;;6.10;95.50;;;;;;5115548;28;20032;-79
2022/03/18 04:05:35;;;;;;;52.53;36.42;;;6.10;95.80;;;;;;5115277;28;20024;-79
2022/03/18 04:08:02;;;;;;;49.95;35.10;;;6.10;96.00;;;;;;5115120;27;20058;-80
2022/03/18 04:10:28;;;;;;;48.90;34.20;;;6.10;96.30;;;;;;5114106;28;20036;-79
2022/03/18 04:12:54;;;;;;;54.25;37.88;;;6.10;96.10;;;;;;5115377;28;20020;-80
2022/03/18 04:15:20;;;;;;;54.22;37.35;;;6.10;96.20;;;;;;5115258;28;20352;-80
2022/03/18 04:17:47;;;;;;;52.13;37.47;;;6.10;96.60;;;;;;5115201;28;20020;-80
2022/03/18 04:20:15;;;;;;;51.15;36.60;;;6.10;96.70;;;;;;5114767;28;20028;-79
2022/03/18 04:22:41;;;;;;;49.20;35.83;;;6.10;96.50;;;;;;5114093;28;20051;-78
2022/03/18 04:25:08;;;;;;;47.92;35.83;;;6.10;96.60;;;;;;5115190;28;20212;-80
2022/03/18 04:27:34;;;;;;;54.25;37.67;;;6.10;96.60;;;;;;5115341;28;20026;-79
2022/03/18 04:30:00;;;;;;;50.45;36.83;;;6.10;96.30;;;;;;5114724;28;20034;-80
2022/03/18 04:32:26;;;;;;;53.03;36.50;;;6.10;96.70;;;;;;5115138;28;20367;-79
2022/03/18 04:34:51;;;;;;;53.05;39.50;;;6.10;96.80;;;;;;5115067;28;20066;-79
2022/03/18 04:37:17;;;;;;;55.70;38.00;;;6.10;96.70;;;;;;5112964;28;20070;-80
2022/03/18 04:39:43;;;;;;;53.30;37.83;;;6.00;96.90;;;;;;5114615;28;20032;-79
2022/03/18 04:42:10;;;;;;;56.83;38.67;;;6.00;96.90;;;;;;5114606;28;20051;-80
2022/03/18 04:44:35;;;;;;;58.95;40.88;;;5.90;97.10;;;;;;5114945;28;20038;-79
2022/03/18 04:47:01;;;;;;;55.45;41.63;;;5.80;97.80;;;;;;5114464;28;20027;-81
2022/03/18 04:49:27;;;;;;;60.58;40.85;;;5.80;98.10;;;;;;5114584;28;20035;-79
2022/03/18 04:51:52;;;;;;;58.28;40.92;;;5.80;98.50;;;;;;5114599;28;20479;-79
2022/03/18 04:54:18;;;;;;;57.55;41.85;;;5.80;98.50;;;;;;5114086;28;20027;-80
2022/03/18 04:59:28;;;;;;;61.13;41.70;;;5.70;98.70;;;;;;5114212;28;20103;-79
2022/03/18 05:01:54;;;;;;;60.53;41.72;;;5.70;98.60;;;;;;5113544;28;20524;-80
2022/03/18 05:04:19;;;;;;;59.17;40.47;;;5.70;99.00;;;;;;5113031;28;20365;-80
2022/03/18 05:06:46;;;;;;;62.97;42.42;;;5.60;99.10;;;;;;5114070;28;20094;-80
2022/03/18 05:09:12;;;;;;;64.65;43.28;;;5.60;99.40;;;;;;5113868;28;20482;-79
2022/03/18 05:11:38;;;;;;;60.70;42.95;;;5.60;99.70;;;;;;5114469;28;20115;-80
2022/03/18 05:14:03;;;;;;;58.20;42.67;;;5.60;99.90;;;;;;5113684;28;20428;-80
2022/03/18 05:16:29;;;;;;;63.05;43.85;;;5.60;99.90;;;;;;5113969;28;20077;-79
2022/03/18 05:18:55;;;;;;;61.20;43.67;;;5.50;99.90;;;;;;5113617;28;20097;-79
2022/03/18 05:21:20;;;;;;;63.13;43.83;;;5.50;99.90;;;;;;5113190;28;20055;-79
2022/03/18 05:23:46;;;;;;;58.88;42.38;;;5.50;99.90;;;;;;5113640;28;20388;-79
2022/03/18 05:26:13;;;;;;;66.75;45.60;;;5.50;99.90;;;;;;5111831;28;20024;-79
2022/03/18 05:28:39;;;;;;;65.55;46.53;;;5.50;99.90;;;;;;5113600;28;20020;-79
2022/03/18 05:31:04;;;;;;;66.80;46.70;;;5.50;99.90;;;;;;5113232;28;20020;-79
2022/03/18 05:33:30;;;;;;;63.90;44.75;;;5.50;99.90;;;;;;5113557;28;20046;-80
2022/03/18 05:35:56;;;;;;;62.70;43.67;;;5.50;99.90;;;;;;5113466;28;20456;-80
2022/03/18 05:38:21;;;;;;;61.65;42.75;;;5.60;99.90;;;;;;5112918;28;20462;-80
2022/03/18 05:40:47;;;;;;;60.38;42.95;;;5.50;99.90;;;;;;5113288;28;20440;-81
2022/03/18 05:43:13;;;;;;;61.95;42.90;;;5.50;99.90;;;;;;5112844;28;20077;-81
2022/03/18 05:45:39;;;;;;;58.22;42.40;;;5.50;99.90;;;;;;5112210;28;20387;-80
2022/03/18 05:48:08;;;;;;;62.40;42.10;;;5.50;99.90;;;;;;5112680;28;20028;-83
2022/03/18 05:50:34;;;;;;;58.20;42.97;;;5.50;99.90;;;;;;5113437;28;20515;-80
2022/03/18 05:53:00;;;;;;;61.25;44.38;;;5.60;99.90;;;;;;5113162;28;20024;-80
2022/03/18 05:56:52;;;;;;;63.25;43.90;;;5.60;99.90;;;;;;5112313;28;20105;-80
2022/03/18 05:58:14;;;;;;;60.63;43.53;;;5.70;99.90;;;;;;5112227;28;20032;-80
2022/03/18 06:00:42;;;;;;;56.63;40.20;;;5.70;99.90;;;;;;5113007;28;20038;-82
2022/03/18 06:03:09;;;;;;;60.20;42.90;;;5.70;99.90;;;;;;5112442;28;20040;-80
2022/03/18 06:05:35;;;;;;;54.42;40.42;;;5.70;99.90;;;;;;5113112;28;20031;-80
2022/03/18 06:11:48;;;;;;;60.22;41.97;;;5.80;99.90;;;;;;5113151;28;20028;-78
2022/03/18 06:13:30;;;;;;;59.10;40.65;;;5.90;99.90;;;;;;5112349;28;20081;-78
2022/03/18 06:15:56;;;;;;;55.95;39.67;;;5.90;99.90;;;;;;5111621;28;20020;-79
2022/03/18 06:18:21;;;;;;;57.45;38.45;;;6.00;99.90;;;;;;5112244;28;20020;-79
2022/03/18 06:20:51;;;;;;;64.50;42.60;;;6.00;99.90;;;;;;5112870;28;20047;-80
2022/03/18 06:23:16;;;;;;;59.10;42.17;;;6.10;99.90;;;;;;5112721;28;20415;-79
2022/03/18 06:25:43;;;;;;;55.58;41.38;;;6.10;99.80;;;;;;5111619;28;20027;-79
2022/03/18 06:28:09;;;;;;;59.70;41.50;;;6.10;99.70;;;;;;5112600;28;20030;-80
2022/03/18 06:33:19;;;;;;;59.60;40.55;;;6.20;99.40;;;;;;5112450;28;20027;-80
2022/03/18 06:35:44;;;;;;;60.03;42.55;;;6.20;98.60;;;;;;5112622;28;20023;-79
2022/03/18 06:38:10;;;;;;;59.85;43.00;;;6.20;98.40;;;;;;5112263;28;20452;-80
2022/03/18 06:40:36;;;;;;;59.83;41.70;;;6.20;98.60;;;;;;5111308;28;20028;-80
2022/03/18 06:43:02;;;;;;;59.33;41.85;;;6.20;98.70;;;;;;5112641;28;20428;-79
2022/03/18 06:45:27;;;;;;;60.70;43.22;;;6.20;98.20;;;;;;5112244;28;20289;-81
2022/03/18 06:47:53;;;;;;;59.30;42.55;;;6.20;98.80;;;;;;5113105;28;20383;-80
2022/03/18 06:50:19;;;;;;;62.33;43.13;;;6.20;98.60;;;;;;5112703;28;20117;-79
2022/03/18 06:52:45;;;;;;;57.80;44.00;;;6.30;99.30;;;;;;5113258;28;20027;-80
2022/03/18 06:55:10;;;;;;;68.57;46.35;;;6.30;99.30;;;;;;5112310;28;20511;-80
2022/03/18 06:57:36;;;;;;;64.05;43.78;;;6.40;98.60;;;;;;5111155;28;20023;-80
2022/03/18 07:00:03;;;;;;;73.82;48.55;;;6.40;98.80;;;;;;5112615;28;20031;-79
2022/03/18 07:02:29;;;;;;;63.25;42.42;;;6.50;98.70;;;;;;5112528;28;20621;-79
2022/03/18 07:04:55;;;;;;;56.35;41.28;;;6.50;98.40;;;;;;5112453;28;20030;-80
2022/03/18 07:07:21;;;;;;;62.08;41.95;;;6.60;98.40;;;;;;5112440;28;20032;-80
2022/03/18 07:09:46;;;;;;;62.15;41.20;;;6.60;98.00;;;;;;5112760;28;20027;-80
2022/03/18 07:12:12;;;;;;;61.38;42.33;;;6.70;98.20;;;;;;5112218;28;20023;-80
2022/03/18 07:14:37;;;;;;;54.03;41.15;;;6.80;98.10;;;;;;5112640;28;20053;-79
2022/03/18 07:19:48;;;;;;;61.13;41.90;;;6.90;97.30;;;;;;5112520;28;20095;-82
2022/03/18 07:22:13;;;;;;;59.95;40.30;;;7.00;97.80;;;;;;5111990;28;20106;-83
2022/03/18 07:24:39;;;;;;;53.28;39.95;;;7.10;97.40;;;;;;5112645;27;20023;-82
2022/03/18 07:27:04;;;;;;;55.25;40.15;;;7.20;96.80;;;;;;5115806;28;20382;-81
2022/03/18 07:29:30;;;;;;;57.30;39.03;;;7.30;96.10;;;;;;5115326;28;20473;-81
2022/03/18 07:31:57;;;;;;;51.95;37.92;;;7.40;95.80;;;;;;5116718;28;20457;-81
2022/03/18 07:34:22;;;;;;;56.38;40.67;;;7.50;95.40;;;;;;5133077;28;20015;-81
2022/03/18 07:36:48;;;;;;;57.13;40.17;;;7.60;94.20;;;;;;5117385;28;20023;-82
2022/03/18 07:39:14;;;;;;;56.30;40.60;;;7.60;94.90;;;;;;5115844;28;20032;-82
2022/03/18 07:41:40;;;;;;;54.42;41.15;;;7.70;94.80;;;;;;5115940;28;20126;-82
2022/03/18 07:44:05;;;;;;;57.00;41.78;;;7.80;94.30;;;;;;5116019;28;20028;-82
2022/03/18 07:46:31;;;;;;;57.00;40.80;;;8.00;94.00;;;;;;5115343;28;20392;-82
2022/03/18 07:48:57;;;;;;;56.65;41.13;;;8.10;93.60;;;;;;5115433;28;20503;-82
2022/03/18 07:51:22;;;;;;;52.47;39.67;;;8.20;93.20;;;;;;5115221;28;20020;-81
2022/03/18 07:53:48;;;;;;;57.13;40.30;;;8.30;93.00;;;;;;5115709;28;20027;-82
2022/03/18 07:56:14;;;;;;;56.80;39.40;;;8.50;92.20;;;;;;5115158;28;20557;-84
2022/03/18 07:58:39;;;;;;;56.83;37.05;;;8.60;92.10;;;;;;5114337;28;20501;-81
2022/03/18 08:01:06;;;;;;;53.72;38.50;;;8.80;91.40;;;;;;5115562;28;20451;-82
2022/03/18 08:03:32;;;;;;;57.00;38.67;;;9.00;90.60;;;;;;5116031;28;20098;-82
2022/03/18 08:05:57;;;;;;;54.92;38.58;;;9.10;89.20;;;;;;5114855;28;20536;-83
2022/03/18 08:08:23;;;;;;;56.35;37.92;;;9.10;87.10;;;;;;5115041;28;20055;-82
2022/03/18 08:10:50;;;;;;;55.88;39.42;;;9.20;87.00;;;;;;5115047;28;20020;-83
2022/03/18 08:13:17;;;;;;;53.22;39.30;;;9.30;85.60;;;;;;5114739;28;20033;-80
2022/03/18 08:15:44;;;;;;;53.40;39.75;;;9.40;84.90;;;;;;5115105;28;20050;-80
2022/03/18 08:18:10;;;;;;;55.40;39.33;;;9.50;84.30;;;;;;5114917;28;20444;-82
2022/03/18 08:20:40;;;;;;;47.50;37.03;;;9.50;83.30;;;;;;5114541;28;20038;-81
2022/03/18 08:23:14;;;;;;;44.45;34.72;;;9.50;84.30;;;;;;5113814;28;20027;-81
2022/03/18 08:25:40;;;;;;;52.05;36.10;;;9.50;83.10;;;;;;5115187;28;20107;-81
2022/03/18 08:28:07;;;;;;;47.97;36.50;;;9.60;82.80;;;;;;5115001;28;20078;-80
2022/03/18 08:30:33;;;;;;;52.72;37.83;;;9.60;82.30;;;;;;5113477;28;20032;-79
2022/03/18 08:32:59;;;;;;;50.42;35.83;;;9.70;82.90;;;;;;5115321;28;20019;-80
2022/03/18 08:35:25;;;;;;;48.90;36.10;;;9.80;82.20;;;;;;5114431;27;20069;-78
2022/03/18 08:37:56;;;;;;;53.72;35.65;;;9.80;81.90;;;;;;5113673;28;20049;-79
2022/03/18 08:40:23;;;;;;;51.35;36.17;;;9.90;80.70;;;;;;5114928;28;20070;-80
2022/03/18 08:42:49;;;;;;;51.45;36.17;;;10.00;80.10;;;;;;5113529;28;20027;-81
2022/03/18 08:45:15;;;;;;;47.80;34.88;;;10.00;80.40;;;;;;5113457;28;20038;-79
2022/03/18 08:47:40;;;;;;;47.67;35.63;;;10.10;80.00;;;;;;5113307;28;20024;-80
2022/03/18 08:50:07;;;;;;;51.92;38.17;;;10.10;79.70;;;;;;5114526;28;20106;-79
2022/03/18 08:52:32;;;;;;;46.33;36.28;;;10.20;80.10;;;;;;5114478;28;20447;-80
2022/03/18 08:54:58;;;;;;;49.28;37.92;;;10.20;78.30;;;;;;5113127;28;20020;-79
2022/03/18 08:57:28;;;;;;;47.28;35.65;;;10.10;80.50;;;;;;5113038;28;20024;-80
2022/03/18 08:59:54;;;;;;;50.30;35.78;;;10.20;80.40;;;;;;5114541;28;20034;-80
2022/03/18 09:02:20;;;;;;;48.47;34.25;;;10.30;80.00;;;;;;5114273;28;20059;-81
2022/03/18 09:04:48;;;;;;;46.85;35.05;;;10.30;79.60;;;;;;5114562;28;20055;-81
2022/03/18 09:07:14;;;;;;;47.25;32.45;;;10.40;79.30;;;;;;5114440;28;20020;-81
2022/03/18 09:09:40;;;;;;;48.90;37.55;;;10.50;78.80;;;;;;5113882;28;20039;-81
2022/03/18 09:12:06;;;;;;;51.80;39.38;;;10.60;77.70;;;;;;5113793;28;20024;-80
2022/03/18 09:14:31;;;;;;;57.72;40.15;;;10.60;77.60;;;;;;5113312;28;20107;-81
2022/03/18 09:16:57;;;;;;;52.75;37.85;;;10.60;78.50;;;;;;5114205;28;20460;-81
2022/03/18 09:19:23;;;;;;;46.30;35.22;;;10.70;78.40;;;;;;5113184;28;20032;-82
2022/03/18 09:21:49;;;;;;;47.75;36.75;;;10.70;77.90;;;;;;5112643;28;20406;-81
2022/03/18 09:24:15;;;;;;;52.72;38.17;;;10.80;77.30;;;;;;5114319;28;20099;-82
2022/03/18 09:26:41;;;;;;;50.30;37.22;;;10.80;77.50;;;;;;5113435;28;20032;-83
2022/03/18 09:29:06;;;;;;;50.33;36.85;;;10.90;77.90;;;;;;5113872;28;20106;-80
2022/03/18 09:31:32;;;;;;;51.45;35.30;;;10.90;77.30;;;;;;5113324;28;20055;-81
2022/03/18 09:33:58;;;;;;;49.65;36.40;;;10.90;76.80;;;;;;5113466;28;20116;-81
2022/03/18 09:36:24;;;;;;;44.72;33.53;;;11.00;78.10;;;;;;5112075;28;20073;-81
2022/03/18 09:38:50;;;;;;;44.28;33.95;;;11.10;77.40;;;;;;5113691;28;20103;-81
2022/03/18 09:41:17;;;;;;;45.05;33.97;;;11.10;77.00;;;;;;5113763;28;20086;-82
2022/03/18 09:43:43;;;;;;;44.80;33.95;;;11.30;76.10;;;;;;5113373;28;20056;-81
2022/03/18 09:46:12;;;;;;;43.70;35.53;;;11.30;76.00;;;;;;5113646;28;20168;-81
2022/03/18 09:48:39;;;;;;;45.65;35.50;;;11.40;74.70;;;;;;5112633;28;20406;-81
2022/03/18 09:51:05;;;;;;;48.22;35.00;;;11.40;75.50;;;;;;5113381;28;20023;-82
2022/03/18 09:53:34;;;;;;;47.67;35.90;;;11.40;75.30;;;;;;5112945;28;20106;-81
2022/03/18 09:56:00;;;;;;;43.92;34.88;;;11.30;75.80;;;;;;5111360;28;20140;-81
2022/03/18 09:58:26;;;;;;;45.60;35.17;;;11.30;74.70;;;;;;5113020;28;20020;-81
2022/03/18 10:00:52;;;;;;;45.95;34.20;;;11.40;76.70;;;;;;5113196;28;20097;-82
2022/03/18 10:03:21;;;;;;;49.75;36.10;;;11.40;75.80;;;;;;5113129;28;20046;-81
2022/03/18 10:05:59;;;;;;;42.97;35.30;;;11.50;75.70;;;;;;5113445;27;20033;-81
2022/03/18 10:08:48;;;;;;;45.50;34.35;;;11.50;76.10;;;;;;5111430;28;20023;-81
2022/03/18 10:11:26;;;;;;;45.05;36.13;;;11.50;76.00;;;;;;5100557;28;20032;-81
2022/03/18 10:14:07;;;;;;;41.38;34.15;;;11.60;74.00;;;;;;5113234;28;20028;-81
2022/03/18 10:16:39;;;;;;;48.50;35.70;;;11.50;74.80;;;;;;5112827;28;20111;-81
2022/03/18 10:19:08;;;;;;;47.72;36.05;;;11.60;75.40;;;;;;5111509;28;20126;-81
2022/03/18 10:22:00;;;;;;;48.80;34.28;;;11.60;75.20;;;;;;5110981;28;20034;-82
2022/03/18 10:24:32;;;;;;;45.83;35.65;;;11.60;74.80;;;;;;5112508;28;20100;-82
2022/03/18 10:27:14;;;;;;;41.90;33.53;;;11.70;74.60;;;;;;5111566;28;20035;-81
2022/03/18 10:29:48;;;;;;;44.17;34.63;;;11.70;73.60;;;;;;5112772;28;20027;-81
2022/03/18 10:32:34;;;;;;;46.53;35.72;;;11.80;73.70;;;;;;5113071;28;20035;-81
2022/03/18 10:37:54;;;;;;;44.90;34.75;;;11.80;71.70;;;;;;5112429;28;20050;-81
2022/03/18 10:40:35;;;;;;;40.60;32.88;;;11.80;72.00;;;;;;5112877;28;20020;-80
2022/03/18 10:43:06;;;;;;;42.08;33.08;;;11.80;72.20;;;;;;5111441;28;20063;-83
2022/03/18 10:45:32;;;;;;;44.92;33.75;;;11.70;71.20;;;;;;5112330;28;20032;-82
2022/03/18 10:48:14;;;;;;;43.60;33.33;;;11.80;71.60;;;;;;5112338;28;20180;-80
2022/03/18 10:50:40;;;;;;;43.13;32.75;;;11.80;72.10;;;;;;5112408;28;20456;-82
2022/03/18 10:53:11;;;;;;;41.17;33.65;;;11.80;72.50;;;;;;5111296;28;20055;-81
2022/03/18 10:55:42;;;;;;;44.13;33.83;;;11.90;72.70;;;;;;5112047;28;20048;-80
2022/03/18 10:58:15;;;;;;;36.22;31.30;;;11.90;72.50;;;;;;5112666;28;20066;-80
2022/03/18 11:00:50;;;;;;;41.42;32.30;;;12.00;71.40;;;;;;5112529;28;20032;-82
2022/03/18 11:03:16;;;;;;;40.42;33.17;;;12.00;71.10;;;;;;5116666;28;20034;-81
2022/03/18 11:05:50;;;;;;;42.38;31.48;;;12.10;70.70;;;;;;5114754;28;20019;-81
2022/03/18 11:08:21;;;;;;;41.40;33.55;;;12.00;70.60;;;;;;5116847;28;20023;-80
2022/03/18 11:11:14;;;;;;;40.80;32.75;;;12.10;69.90;;;;;;5114966;28;20468;-81
2022/03/18 11:13:47;;;;;;;40.65;31.05;;;12.10;70.50;;;;;;5116401;28;20031;-80
2022/03/18 11:16:28;;;;;;;42.50;30.55;;;12.20;68.50;;;;;;5116874;28;20037;-81
2022/03/18 11:18:54;;;;;;;41.03;30.63;;;12.20;68.80;;;;;;5116540;28;20024;-81
2022/03/18 11:21:21;;;;;;;39.15;29.33;;;12.30;68.80;;;;;;5116276;28;20031;-80
2022/03/18 11:23:49;;;;;;;37.13;29.38;;;12.40;67.50;;;;;;5116002;27;20036;-81
2022/03/18 11:26:17;;;;;;;37.88;30.23;;;12.40;65.90;;;;;;5116409;28;20106;-80
2022/03/18 11:28:43;;;;;;;36.95;29.85;;;12.40;66.90;;;;;;5116415;28;20059;-80
2022/03/18 11:31:10;;;;;;;33.92;28.77;;;12.50;64.30;;;;;;5116564;28;20420;-82
2022/03/18 11:33:38;;;;;;;39.00;31.27;;;12.50;64.00;;;;;;5115657;28;20016;-81
2022/03/18 11:36:09;;;;;;;39.28;31.90;;;12.50;64.10;;;;;;5116386;28;20030;-80
2022/03/18 11:38:59;;;;;;;40.92;32.58;;;12.50;64.70;;;;;;5118263;28;20038;-82
2022/03/18 11:41:46;;;;;;;45.08;32.38;;;12.50;64.70;;;;;;5118932;28;20388;-81
2022/03/18 11:44:44;;;;;;;42.58;33.00;;;12.50;65.60;;;;;;5120022;27;20062;-81
2022/03/18 11:47:28;;;;;;;42.45;33.47;;;12.60;65.30;;;;;;5132367;28;20027;-83
2022/03/18 11:49:54;;;;;;;43.67;32.20;;;12.60;65.30;;;;;;5123285;28;20023;-81
2022/03/18 11:52:20;;;;;;;39.88;32.35;;;12.70;65.30;;;;;;5114608;28;20023;-81
2022/03/18 11:54:58;;;;;;;42.47;34.20;;;12.70;65.00;;;;;;5115569;28;20290;-80
2022/03/18 11:57:36;;;;;;;38.70;32.05;;;12.70;64.60;;;;;;5115679;28;20028;-81
2022/03/18 12:00:05;;;;;;;38.33;32.08;;;12.80;65.20;;;;;;5115704;28;20112;-81
2022/03/18 12:02:38;;;;;;;39.15;31.40;;;12.80;64.50;;;;;;5113506;28;20027;-82
2022/03/18 12:05:05;;;;;;;40.90;31.80;;;12.80;64.60;;;;;;5115518;28;20102;-82
2022/03/18 12:07:46;;;;;;;36.80;30.80;;;12.90;64.70;;;;;;5115078;28;20027;-82
2022/03/18 12:10:14;;;;;;;;;;;12.90;64.10;;;;;;5116221;28;20020;-82
2022/03/18 12:12:43;;;;;;;39.67;29.10;;;12.90;63.10;;;;;;5113358;28;19990;-80
2022/03/18 12:15:17;;;;;;;33.67;27.67;;;13.00;60.90;;;;;;5115204;28;20094;-82
2022/03/18 12:17:44;;;;;;;34.47;28.58;;;13.00;60.30;;;;;;5114300;28;20024;-81
2022/03/18 12:20:13;;;;;;;33.67;26.77;;;13.00;58.30;;;;;;5115068;28;20386;-82
2022/03/18 12:22:41;;;;;;;30.85;25.27;;;12.90;59.90;;;;;;5114777;28;20027;-80
2022/03/18 12:25:08;;;;;;;32.42;25.08;;;12.90;58.90;;;;;;5113392;28;20115;-80
2022/03/18 12:27:39;;;;;;;31.15;24.33;;;12.90;57.20;;;;;;5114368;28;20102;-81
2022/03/18 12:30:09;;;;;;;28.08;24.52;;;12.90;57.30;;;;;;5115063;28;20144;-81
2022/03/18 12:32:39;;;;;;;33.47;25.30;;;12.90;57.40;;;;;;5114688;28;20031;-82
2022/03/18 12:35:05;;;;;;;31.52;24.52;;;12.90;56.80;;;;;;5114914;28;20020;-81
2022/03/18 12:37:32;;;;;;;32.45;24.92;;;12.90;57.00;;;;;;5114658;28;20026;-82
2022/03/18 12:40:12;;;;;;;30.33;24.55;;;12.90;56.50;;;;;;5113531;28;20085;-81
2022/03/18 12:42:48;;;;;;;33.53;24.47;;;12.90;57.20;;;;;;5113152;28;20031;-80
2022/03/18 12:45:30;;;;;;;30.80;23.88;;;12.90;56.10;;;;;;5114728;28;20023;-81
2022/03/18 12:47:58;;;;;;;34.17;23.85;;;12.90;56.10;;;;;;5114884;28;20027;-81
2022/03/18 12:50:29;;;;;;;27.70;23.33;;;12.90;56.20;;;;;;5113841;28;20047;-82
2022/03/18 12:52:56;;;;;;;32.33;24.50;;;12.90;54.00;;;;;;5114061;28;20482;-81
2022/03/18 12:55:24;;;;;;;26.33;23.20;;;12.90;53.30;;;;;;5112869;28;20047;-82
2022/03/18 12:57:50;;;;;;;31.08;25.02;;;12.80;53.20;;;;;;5112489;28;20375;-81
2022/03/18 13:00:17;;;;;;;31.00;24.25;;;12.80;54.30;;;;;;5114042;28;20023;-82
2022/03/18 13:02:44;;;;;;;31.42;24.83;;;12.80;54.30;;;;;;5114329;28;20089;-80
2022/03/18 13:05:13;;;;;;;29.13;23.05;;;12.70;53.70;;;;;;5113548;28;20027;-78